createdAt,value
2023-04-06T00:02:10.527Z,12.43
2023-04-06T00:04:37.451Z,10.23
2023-04-06T00:07:04.584Z,12.55
2023-04-06T00:09:31.530Z,17.35
2023-04-06T00:11:58.922Z,13.65
2023-04-06T00:14:26.156Z,13.68
2023-04-06T00:16:56.498Z,12.85
2023-04-06T00:19:23.530Z,12.68
2023-04-06T00:21:50.543Z,18.05
2023-04-06T00:24:17.433Z,14.05
2023-04-06T00:26:44.399Z,12.30
2023-04-06T00:29:11.473Z,13.35
2023-04-06T00:34:06.802Z,15.73
2023-04-06T00:36:33.767Z,13.90
2023-04-06T00:39:01.475Z,13.73
2023-04-06T00:41:31.074Z,13.57
2023-04-06T00:43:58.439Z,15.02
2023-04-06T00:48:54.740Z,15.38
2023-04-06T00:51:23.968Z,11.38
2023-04-06T00:53:51.008Z,14.57
2023-04-06T00:58:56.975Z,15.65
2023-04-06T01:01:25.404Z,11.88
2023-04-06T01:03:55.338Z,12.98
2023-04-06T01:06:23.837Z,13.50
2023-04-06T01:09:00.841Z,14.27
2023-04-06T01:11:29.100Z,15.13
2023-04-06T01:13:56.846Z,14.52
2023-04-06T01:16:37.598Z,14.13
2023-04-06T01:19:16.593Z,15.30
2023-04-06T01:21:47.808Z,18.73
2023-04-06T01:24:42.533Z,17.05
2023-04-06T01:27:13.981Z,14.35
2023-04-06T01:29:59.781Z,16.47
2023-04-06T01:32:46.952Z,17.10
2023-04-06T01:35:18.077Z,13.02
2023-04-06T01:40:27.409Z,14.43
2023-04-06T01:42:54.402Z,15.50
2023-04-06T01:45:32.303Z,13.57
2023-04-06T01:50:37.662Z,14.60
2023-04-06T01:53:04.954Z,12.35
2023-04-06T01:55:32.875Z,13.07
2023-04-06T01:58:18.018Z,15.55
2023-04-06T02:00:45.446Z,15.65
2023-04-06T02:05:45.912Z,15.32
2023-04-06T02:08:25.219Z,17.08
2023-04-06T02:10:54.396Z,17.77
2023-04-06T02:13:29.966Z,19.58
2023-04-06T02:15:59.651Z,15.07
2023-04-06T02:18:29.253Z,16.95
2023-04-06T02:20:58.497Z,20.63
2023-04-06T02:23:25.567Z,18.70
2023-04-06T02:25:52.525Z,19.48
2023-04-06T02:28:19.669Z,18.33
2023-04-06T02:30:47.644Z,16.02
2023-04-06T02:33:17.089Z,15.45
2023-04-06T02:35:49.577Z,19.58
2023-04-06T02:38:16.641Z,19.13
2023-04-06T02:40:43.597Z,20.70
2023-04-06T02:43:36.824Z,16.67
2023-04-06T02:46:12.781Z,19.05
2023-04-06T02:48:44.596Z,24.23
2023-04-06T02:51:14.851Z,19.70
2023-04-06T02:53:45.505Z,16.15
2023-04-06T02:56:13.947Z,20.33
2023-04-06T02:58:49.058Z,18.63
2023-04-06T03:01:16.728Z,21.83
2023-04-06T03:03:44.495Z,19.23
2023-04-06T03:06:19.030Z,19.75
2023-04-06T03:11:19.953Z,20.15
2023-04-06T03:14:08.264Z,17.92
2023-04-06T03:16:36.240Z,17.90
2023-04-06T03:19:06.690Z,18.58
2023-04-06T03:21:38.934Z,19.45
2023-04-06T03:27:16.403Z,16.90
2023-04-06T03:29:50.334Z,20.30
2023-04-06T03:32:24.293Z,17.58
2023-04-06T03:37:19.790Z,19.90
2023-04-06T03:39:55.347Z,19.48
2023-04-06T03:42:25.005Z,17.90
2023-04-06T03:45:00.412Z,20.40
2023-04-06T03:47:31.392Z,18.40
2023-04-06T03:50:04.582Z,17.00
2023-04-06T03:52:37.561Z,18.42
2023-04-06T03:55:05.432Z,17.92
2023-04-06T03:57:33.495Z,17.83
2023-04-06T04:00:02.240Z,21.27
2023-04-06T04:02:40.183Z,17.13
2023-04-06T04:05:09.719Z,22.20
2023-04-06T04:07:40.323Z,17.67
2023-04-06T04:10:24.183Z,19.27
2023-04-06T04:12:53.977Z,16.98
2023-04-06T04:15:21.641Z,23.30
2023-04-06T04:17:51.782Z,18.17
2023-04-06T04:20:21.526Z,18.30
2023-04-06T04:22:54.262Z,19.60
2023-04-06T04:25:24.239Z,20.15
2023-04-06T04:27:57.060Z,21.02
2023-04-06T04:30:26.449Z,17.27
2023-04-06T04:32:53.614Z,17.95
2023-04-06T04:35:24.360Z,19.80
2023-04-06T04:37:52.160Z,22.75
2023-04-06T04:40:20.100Z,16.70
2023-04-06T04:43:04.505Z,19.63
2023-04-06T04:45:37.287Z,18.75
2023-04-06T04:48:16.117Z,20.50
2023-04-06T04:51:10.043Z,19.55
2023-04-06T04:53:53.925Z,18.58
2023-04-06T04:56:29.057Z,19.70
2023-04-06T04:59:04.901Z,19.27
2023-04-06T05:01:51.725Z,19.42
2023-04-06T05:04:27.695Z,21.13
2023-04-06T05:11:07.845Z,20.52
2023-04-06T05:13:39.573Z,18.40
2023-04-06T05:16:17.349Z,18.23
2023-04-06T05:18:44.776Z,18.65
2023-04-06T05:21:12.275Z,25.67
2023-04-06T05:24:06.052Z,29.10
2023-04-06T05:26:34.699Z,21.13
2023-04-06T05:29:08.245Z,17.25
2023-04-06T05:31:44.640Z,17.63
2023-04-06T05:34:14.308Z,38.58
2023-04-06T05:36:44.300Z,21.48
2023-04-06T05:39:21.535Z,18.60
2023-04-06T05:41:52.771Z,19.25
2023-04-06T05:44:55.107Z,22.20
2023-04-06T05:47:22.509Z,17.67
2023-04-06T05:50:09.908Z,16.73
2023-04-06T05:52:44.395Z,21.33
2023-04-06T05:55:15.069Z,17.02
2023-04-06T05:57:46.219Z,22.42
2023-04-06T06:03:27.511Z,22.90
2023-04-06T06:06:05.692Z,16.52
2023-04-06T06:09:04.437Z,17.17
2023-04-06T06:11:46.002Z,21.52
2023-04-06T06:14:16.701Z,17.25
2023-04-06T06:17:04.020Z,17.40
2023-04-06T06:19:31.329Z,19.17
2023-04-06T06:22:03.716Z,39.38
2023-04-06T06:24:32.270Z,20.33
2023-04-06T06:27:02.023Z,20.48
2023-04-06T06:29:38.837Z,17.35
2023-04-06T06:32:10.507Z,16.63
2023-04-06T06:34:40.304Z,16.42
2023-04-06T06:37:32.669Z,17.85
2023-04-06T06:40:03.002Z,17.60
2023-04-06T06:42:32.189Z,18.13
2023-04-06T06:45:11.103Z,16.88
2023-04-06T06:47:40.362Z,17.52
2023-04-06T06:50:12.075Z,18.20
2023-04-06T06:55:06.976Z,13.68
2023-04-06T06:58:38.657Z,14.07
2023-04-06T07:04:28.393Z,16.30
2023-04-06T07:07:06.244Z,20.10
2023-04-06T07:09:36.932Z,17.10
2023-04-06T07:14:33.406Z,14.68
2023-04-06T07:17:08.326Z,16.75
2023-04-06T07:19:37.234Z,15.20
2023-04-06T07:22:06.563Z,16.15
2023-04-06T07:24:33.949Z,15.43
2023-04-06T07:29:31.460Z,18.33
2023-04-06T07:32:00.818Z,16.70
2023-04-06T07:36:55.554Z,15.02
2023-04-06T07:39:27.758Z,17.90
2023-04-06T07:41:56.159Z,14.05
2023-04-06T07:44:26.401Z,19.33
2023-04-06T07:51:01.226Z,13.18
2023-04-06T07:53:28.414Z,13.02
2023-04-06T07:55:59.543Z,13.63
2023-04-06T07:58:28.870Z,13.40
2023-04-06T08:01:02.157Z,12.50
2023-04-06T08:03:29.491Z,13.48
2023-04-06T08:08:26.412Z,15.10
2023-04-06T08:10:54.652Z,14.32
2023-04-06T08:15:49.988Z,13.55
2023-04-06T08:18:17.765Z,16.45
2023-04-06T08:20:46.453Z,13.65
2023-04-06T08:23:13.635Z,13.50
2023-04-06T08:25:40.882Z,11.48
2023-04-06T08:28:10.500Z,14.93
2023-04-06T08:30:38.314Z,10.50
2023-04-06T08:33:05.775Z,19.17
2023-04-06T08:40:37.932Z,14.25
2023-04-06T08:43:09.652Z,12.13
2023-04-06T08:45:36.993Z,14.60
2023-04-06T08:50:39.361Z,14.25
2023-04-06T08:53:13.446Z,12.07
2023-04-06T08:55:44.065Z,12.43
2023-04-06T08:58:12.698Z,10.13
2023-04-06T09:00:43.982Z,13.95
2023-04-06T09:03:14.499Z,13.77
2023-04-06T09:05:42.052Z,10.63
2023-04-06T09:08:14.284Z,9.13
2023-04-06T09:10:44.952Z,9.60
2023-04-06T09:13:12.256Z,13.20
2023-04-06T09:18:11.751Z,12.70
2023-04-06T09:20:38.951Z,11.90
2023-04-06T09:23:06.164Z,11.32
2023-04-06T09:25:33.565Z,11.82
2023-04-06T09:28:08.207Z,10.95
2023-04-06T09:30:36.892Z,12.20
2023-04-06T09:33:07.909Z,12.43
2023-04-06T09:35:34.950Z,13.38
2023-04-06T09:38:12.458Z,13.00
2023-04-06T09:41:00.051Z,13.95
2023-04-06T09:43:30.817Z,12.15
2023-04-06T09:45:58.749Z,11.07
2023-04-06T09:48:28.126Z,16.20
2023-04-06T09:51:04.207Z,10.25
2023-04-06T09:53:32.479Z,10.95
2023-04-06T09:56:03.545Z,17.27
2023-04-06T09:58:37.278Z,12.15
2023-04-06T10:01:18.110Z,13.32
2023-04-06T10:04:13.420Z,12.23
2023-04-06T10:06:45.727Z,12.73
2023-04-06T10:09:14.796Z,12.57
2023-04-06T10:11:44.565Z,10.48
2023-04-06T10:14:14.290Z,7.22
2023-04-06T10:16:43.743Z,7.00
2023-04-06T10:19:25.653Z,8.43
2023-04-06T10:21:56.469Z,8.35
2023-04-06T10:24:23.634Z,9.00
2023-04-06T10:27:04.092Z,8.48
2023-04-06T10:29:46.616Z,8.13
2023-04-06T10:32:16.278Z,7.47
2023-04-06T10:34:43.216Z,9.18
2023-04-06T10:37:20.022Z,6.90
2023-04-06T10:39:59.298Z,11.00
2023-04-06T10:42:39.253Z,8.80
2023-04-06T10:45:11.580Z,10.38
2023-04-06T10:47:42.350Z,7.43
2023-04-06T10:50:10.333Z,10.07
2023-04-06T10:52:37.392Z,9.48
2023-04-06T10:55:06.018Z,9.77
2023-04-06T10:57:33.828Z,15.63
2023-04-06T11:00:08.465Z,8.75
2023-04-06T11:02:39.021Z,10.07
2023-04-06T11:05:06.616Z,8.18
2023-04-06T11:07:34.960Z,6.78
2023-04-06T11:12:46.863Z,6.22
2023-04-06T11:15:14.047Z,6.15
2023-04-06T11:20:12.753Z,6.88
2023-04-06T11:22:53.419Z,5.30
2023-04-06T11:25:21.009Z,6.90
2023-04-06T11:27:48.923Z,7.07
2023-04-06T11:30:16.315Z,6.63
2023-04-06T11:35:24.630Z,6.35
2023-04-06T11:37:54.248Z,6.25
2023-04-06T11:40:25.949Z,7.68
2023-04-06T11:42:59.066Z,7.38
2023-04-06T11:45:26.443Z,6.35
